createdAt,value
2023-03-24T00:01:57.245Z,99.90
2023-03-24T00:04:28.447Z,99.90
2023-03-24T00:06:55.314Z,99.90
2023-03-24T00:09:22.305Z,99.90
2023-03-24T00:11:49.235Z,99.90
2023-03-24T00:14:16.137Z,99.90
2023-03-24T00:16:45.483Z,99.90
2023-03-24T00:19:14.940Z,99.90
2023-03-24T00:21:42.353Z,99.90
2023-03-24T00:24:13.577Z,99.90
2023-03-24T00:26:41.362Z,99.90
2023-03-24T00:29:11.790Z,99.90
2023-03-24T00:31:40.272Z,99.90
2023-03-24T00:34:08.938Z,99.90
2023-03-24T00:36:37.131Z,99.90
2023-03-24T00:39:06.296Z,99.90
2023-03-24T00:41:33.448Z,99.90
2023-03-24T00:44:03.574Z,99.90
2023-03-24T00:46:30.783Z,99.90
2023-03-24T00:49:05.720Z,99.90
2023-03-24T00:51:38.590Z,99.90
2023-03-24T00:54:07.414Z,99.90
2023-03-24T00:56:36.142Z,99.90
2023-03-24T00:59:03.638Z,99.90
2023-03-24T01:01:34.954Z,99.90
2023-03-24T01:04:02.712Z,99.90
2023-03-24T01:06:30.464Z,99.90
2023-03-24T01:08:57.639Z,99.90
2023-03-24T01:11:26.707Z,99.90
2023-03-24T01:13:54.612Z,99.90
2023-03-24T01:16:25.793Z,99.90
2023-03-24T01:18:53.231Z,99.90
2023-03-24T01:21:20.289Z,99.90
2023-03-24T01:23:47.691Z,99.90
2023-03-24T01:26:14.758Z,99.90
2023-03-24T01:28:43.748Z,99.90
2023-03-24T01:31:11.679Z,99.90
2023-03-24T01:33:39.149Z,99.90
2023-03-24T01:36:07.313Z,99.90
2023-03-24T01:38:35.057Z,99.90
2023-03-24T01:41:02.784Z,99.90
2023-03-24T01:43:32.401Z,99.90
2023-03-24T01:46:17.524Z,99.90
2023-03-24T01:48:56.778Z,99.90
2023-03-24T01:51:30.603Z,99.90
2023-03-24T01:54:11.965Z,99.90
2023-03-24T01:56:45.292Z,99.90
2023-03-24T01:59:23.117Z,99.90
2023-03-24T02:01:52.214Z,99.90
2023-03-24T02:04:19.473Z,99.90
2023-03-24T02:06:46.675Z,99.90
2023-03-24T02:09:14.940Z,99.90
2023-03-24T02:11:42.770Z,99.90
2023-03-24T02:14:12.077Z,99.90
2023-03-24T02:16:57.523Z,99.90
2023-03-24T02:20:13.714Z,99.90
2023-03-24T02:22:40.927Z,99.90
2023-03-24T02:25:22.886Z,99.90
2023-03-24T02:27:52.751Z,99.90
2023-03-24T02:30:41.641Z,99.90
2023-03-24T02:33:32.804Z,99.90
2023-03-24T02:36:05.766Z,99.90
2023-03-24T02:39:06.423Z,99.90
2023-03-24T02:41:43.876Z,99.90
2023-03-24T02:44:26.980Z,99.90
2023-03-24T02:47:04.746Z,99.90
2023-03-24T02:49:47.071Z,99.90
2023-03-24T02:52:20.348Z,99.90
2023-03-24T02:54:55.276Z,99.90
2023-03-24T02:57:36.169Z,99.90
2023-03-24T03:00:18.716Z,99.90
2023-03-24T03:03:02.969Z,99.90
2023-03-24T03:06:01.240Z,99.90
2023-03-24T03:08:32.537Z,99.90
2023-03-24T03:11:01.723Z,99.90
2023-03-24T03:13:40.214Z,99.90
2023-03-24T03:16:38.655Z,99.90
2023-03-24T03:19:18.022Z,99.90
2023-03-24T03:21:48.016Z,99.90
2023-03-24T03:24:27.252Z,99.90
2023-03-24T03:27:03.050Z,99.90
2023-03-24T03:29:36.413Z,99.90
2023-03-24T03:32:10.089Z,99.90
2023-03-24T03:34:46.312Z,99.90
2023-03-24T03:37:47.793Z,99.90
2023-03-24T03:40:20.485Z,99.90
2023-03-24T03:42:47.927Z,99.90
2023-03-24T03:45:15.051Z,99.90
2023-03-24T03:47:42.027Z,99.90
2023-03-24T03:50:10.031Z,99.90
2023-03-24T03:52:41.625Z,99.90
2023-03-24T03:55:10.102Z,99.90
2023-03-24T03:57:37.290Z,99.90
2023-03-24T04:00:15.742Z,99.90
2023-03-24T04:02:45.675Z,99.90
2023-03-24T04:05:28.260Z,99.90
2023-03-24T04:08:32.697Z,99.90
2023-03-24T04:11:40.357Z,99.90
2023-03-24T04:14:39.988Z,99.90
2023-03-24T04:17:18.139Z,99.90
2023-03-24T04:20:06.467Z,99.90
2023-03-24T04:22:57.716Z,99.90
2023-03-24T04:25:30.430Z,99.90
2023-03-24T04:28:04.270Z,99.90
2023-03-24T04:30:43.901Z,99.90
2023-03-24T04:33:18.011Z,99.90
2023-03-24T04:35:55.460Z,99.90
2023-03-24T04:38:27.751Z,99.90
2023-03-24T04:40:56.703Z,99.90
2023-03-24T04:43:28.652Z,99.90
2023-03-24T04:45:58.065Z,99.90
2023-03-24T04:48:26.252Z,99.90
2023-03-24T04:50:57.107Z,99.90
2023-03-24T04:53:23.954Z,99.90
2023-03-24T04:55:51.004Z,99.90
2023-03-24T04:58:19.080Z,99.90
2023-03-24T05:00:46.676Z,99.90
2023-03-24T05:03:14.690Z,99.90
2023-03-24T05:05:43.056Z,99.90
2023-03-24T05:08:11.095Z,99.90
2023-03-24T05:10:38.229Z,99.90
2023-03-24T05:13:06.962Z,99.90
2023-03-24T05:15:34.822Z,99.90
2023-03-24T05:18:02.267Z,99.90
2023-03-24T05:20:30.151Z,99.90
2023-03-24T05:22:57.382Z,99.90
2023-03-24T05:25:24.324Z,99.90
2023-03-24T05:27:51.486Z,99.90
2023-03-24T05:30:24.688Z,99.90
2023-03-24T05:32:51.694Z,99.90
2023-03-24T05:35:19.078Z,99.90
2023-03-24T05:37:45.929Z,99.90
2023-03-24T05:40:13.127Z,99.90
2023-03-24T05:42:39.965Z,99.90
2023-03-24T05:45:07.524Z,99.90
2023-03-24T05:47:34.387Z,99.90
2023-03-24T05:50:01.298Z,99.90
2023-03-24T05:52:29.061Z,99.90
2023-03-24T05:54:56.024Z,99.90
2023-03-24T05:57:22.979Z,99.90
2023-03-24T05:59:53.203Z,99.90
2023-03-24T06:02:20.090Z,99.70
2023-03-24T06:04:49.054Z,99.60
2023-03-24T06:07:16.580Z,99.30
2023-03-24T06:09:47.221Z,98.90
2023-03-24T06:12:21.857Z,98.90
2023-03-24T06:14:48.993Z,99.00
2023-03-24T06:17:16.118Z,99.00
2023-03-24T06:19:49.704Z,99.10
2023-03-24T06:22:20.709Z,99.40
2023-03-24T06:24:47.977Z,99.90
2023-03-24T06:27:15.740Z,99.40
2023-03-24T06:29:42.570Z,99.90
2023-03-24T06:32:10.117Z,99.90
2023-03-24T06:34:38.879Z,99.90
2023-03-24T06:37:05.915Z,99.90
2023-03-24T06:39:33.051Z,99.90
2023-03-24T06:41:59.929Z,99.90
2023-03-24T06:44:27.940Z,99.90
2023-03-24T06:46:54.824Z,99.90
2023-03-24T06:49:21.609Z,99.90
2023-03-24T06:51:48.523Z,99.90
2023-03-24T06:54:15.826Z,99.90
2023-03-24T06:56:43.201Z,99.90
2023-03-24T06:59:10.293Z,99.90
2023-03-24T07:01:38.602Z,99.90
2023-03-24T07:04:06.374Z,99.90
2023-03-24T07:06:40.467Z,99.90
2023-03-24T07:09:14.066Z,99.90
2023-03-24T07:11:41.460Z,99.90
2023-03-24T07:14:08.359Z,99.90
2023-03-24T07:16:37.387Z,99.90
2023-03-24T07:19:04.377Z,99.90
2023-03-24T07:21:31.217Z,99.90
2023-03-24T07:23:58.027Z,99.90
2023-03-24T07:26:24.826Z,99.90
2023-03-24T07:28:51.655Z,99.90
2023-03-24T07:31:18.564Z,99.90
2023-03-24T07:33:46.532Z,99.90
2023-03-24T07:36:13.405Z,99.90
2023-03-24T07:38:40.394Z,99.90
2023-03-24T07:41:07.136Z,99.90
2023-03-24T07:43:34.041Z,99.90
2023-03-24T07:46:00.924Z,99.90
2023-03-24T07:48:28.004Z,99.90
2023-03-24T07:50:54.835Z,99.90
2023-03-24T07:53:21.673Z,99.90
2023-03-24T07:55:48.916Z,99.90
2023-03-24T07:58:16.151Z,99.90
2023-03-24T08:00:43.184Z,99.90
2023-03-24T08:03:14.418Z,99.90
2023-03-24T08:05:42.318Z,99.90
2023-03-24T08:08:10.228Z,99.90
2023-03-24T08:10:37.251Z,99.90
2023-03-24T08:13:04.417Z,99.90
2023-03-24T08:15:31.766Z,99.90
2023-03-24T08:17:58.698Z,99.90
2023-03-24T08:20:27.398Z,99.90
2023-03-24T08:22:54.673Z,99.90
2023-03-24T08:25:24.215Z,99.90
2023-03-24T08:27:51.827Z,99.90
2023-03-24T08:30:24.443Z,99.90
2023-03-24T08:32:56.502Z,99.90
2023-03-24T08:35:26.127Z,99.90
2023-03-24T08:37:53.461Z,99.90
2023-03-24T08:40:24.301Z,99.90
2023-03-24T08:42:54.238Z,99.90
2023-03-24T08:45:23.778Z,99.90
2023-03-24T08:47:52.569Z,99.90
2023-03-24T08:50:21.931Z,99.90
2023-03-24T08:52:48.914Z,99.90
2023-03-24T08:55:19.834Z,99.90
2023-03-24T08:57:47.036Z,99.90
2023-03-24T09:00:15.551Z,99.90
2023-03-24T09:02:48.252Z,99.90
2023-03-24T09:05:18.211Z,99.90
2023-03-24T09:07:48.034Z,99.90
2023-03-24T09:10:15.341Z,99.90
2023-03-24T09:12:43.460Z,99.90
2023-03-24T09:15:13.377Z,99.90
2023-03-24T09:17:41.379Z,99.70
2023-03-24T09:20:12.208Z,99.90
2023-03-24T09:22:44.281Z,99.90
2023-03-24T09:25:14.922Z,99.90
2023-03-24T09:27:41.778Z,99.80
2023-03-24T09:30:10.509Z,99.70
2023-03-24T09:32:37.571Z,98.80
2023-03-24T09:35:05.341Z,98.50
2023-03-24T09:37:33.983Z,97.80
2023-03-24T09:40:01.554Z,97.00
2023-03-24T09:42:51.817Z,96.50
2023-03-24T09:45:21.691Z,95.50
2023-03-24T09:47:55.975Z,94.30
2023-03-24T09:50:25.290Z,92.70
2023-03-24T09:53:00.751Z,92.80
2023-03-24T09:55:29.224Z,91.80
2023-03-24T09:58:01.501Z,91.60
2023-03-24T10:00:32.220Z,89.80
2023-03-24T10:03:13.557Z,90.60
2023-03-24T10:05:41.391Z,90.80
2023-03-24T10:08:32.573Z,92.10
2023-03-24T10:11:09.725Z,91.40
2023-03-24T10:13:57.998Z,91.50
2023-03-24T10:16:56.076Z,92.20
2023-03-24T10:19:57.548Z,90.70
2023-03-24T10:22:39.972Z,90.40
2023-03-24T10:25:21.580Z,91.60
2023-03-24T10:28:00.101Z,91.10
2023-03-24T10:30:31.677Z,91.80
2023-03-24T10:32:58.453Z,92.20
2023-03-24T10:35:30.490Z,92.70
2023-03-24T10:38:02.736Z,93.00
2023-03-24T10:40:33.864Z,91.90
2023-03-24T10:43:06.661Z,91.30
2023-03-24T10:45:38.520Z,90.80
2023-03-24T10:48:05.724Z,86.80
2023-03-24T10:50:35.836Z,82.80
2023-03-24T10:53:15.118Z,79.00
2023-03-24T10:55:44.041Z,79.80
2023-03-24T10:58:28.153Z,77.70
2023-03-24T11:00:55.950Z,67.70
2023-03-24T11:03:31.665Z,58.30
2023-03-24T11:06:03.199Z,56.60
2023-03-24T11:08:39.318Z,53.90
2023-03-24T11:11:28.281Z,47.90
2023-03-24T11:13:58.156Z,51.20
2023-03-24T11:16:29.704Z,52.60
2023-03-24T11:19:02.424Z,52.30
2023-03-24T11:21:31.962Z,50.90
2023-03-24T11:24:04.599Z,48.30
2023-03-24T11:26:34.332Z,50.00
2023-03-24T11:29:10.443Z,47.10
2023-03-24T11:31:39.366Z,48.50
2023-03-24T11:34:20.379Z,46.30
2023-03-24T11:36:59.851Z,43.60
2023-03-24T11:39:29.682Z,46.10
2023-03-24T11:42:17.504Z,48.00
2023-03-24T11:44:53.013Z,45.50
2023-03-24T11:47:27.513Z,47.00
2023-03-24T11:50:18.912Z,45.00
2023-03-24T11:53:17.489Z,47.50
2023-03-24T11:55:50.807Z,46.20
2023-03-24T11:58:27.980Z,42.10
2023-03-24T12:01:15.930Z,42.10
2023-03-24T12:03:46.694Z,43.10
2023-03-24T12:06:38.323Z,42.40
2023-03-24T12:09:36.292Z,45.30
2023-03-24T12:12:24.743Z,43.30
2023-03-24T12:15:00.501Z,43.40
2023-03-24T12:17:40.796Z,40.80
2023-03-24T12:20:51.568Z,44.50
2023-03-24T12:23:23.672Z,41.10
2023-03-24T12:26:10.668Z,43.00
2023-03-24T12:28:55.339Z,41.80
2023-03-24T12:31:34.600Z,42.60
2023-03-24T12:34:20.412Z,46.90
2023-03-24T12:36:58.890Z,48.30
2023-03-24T12:39:35.454Z,50.30
2023-03-24T12:42:10.892Z,49.00
2023-03-24T12:44:37.708Z,50.00
2023-03-24T12:47:26.333Z,50.70
2023-03-24T12:50:15.095Z,53.10
2023-03-24T12:53:07.566Z,54.30
2023-03-24T12:55:44.642Z,52.80
2023-03-24T12:58:33.318Z,54.20
2023-03-24T13:01:24.018Z,52.90
2023-03-24T13:03:58.098Z,53.10
2023-03-24T13:06:30.800Z,54.90
2023-03-24T13:09:08.180Z,54.80
2023-03-24T13:11:58.733Z,51.20
2023-03-24T13:14:42.144Z,51.10
2023-03-24T13:17:18.680Z,49.50
2023-03-24T13:19:47.549Z,49.80
2023-03-24T13:22:20.555Z,48.20
2023-03-24T13:24:48.396Z,50.30
2023-03-24T13:27:23.042Z,53.10
2023-03-24T13:30:31.395Z,54.10
2023-03-24T13:33:11.440Z,56.10
2023-03-24T13:35:41.483Z,49.10
2023-03-24T13:38:31.034Z,49.60
2023-03-24T13:40:58.006Z,49.60
2023-03-24T13:43:29.823Z,51.60
2023-03-24T13:46:06.083Z,52.30
2023-03-24T13:48:41.952Z,54.00
2023-03-24T13:51:19.460Z,53.70
2023-03-24T13:54:04.649Z,54.00
2023-03-24T13:56:42.308Z,53.60
2023-03-24T13:59:32.926Z,54.30
2023-03-24T14:02:22.011Z,54.30
2023-03-24T14:05:01.304Z,54.00
2023-03-24T14:07:40.317Z,54.70
2023-03-24T14:10:36.979Z,57.50
2023-03-24T14:13:19.395Z,56.90
2023-03-24T14:15:51.920Z,57.30
2023-03-24T14:18:26.129Z,60.50
2023-03-24T14:20:56.424Z,62.50
2023-03-24T14:23:31.743Z,67.00
2023-03-24T14:25:59.033Z,75.20
2023-03-24T14:28:43.920Z,80.00
2023-03-24T14:31:15.721Z,77.50
2023-03-24T14:33:54.782Z,70.50
2023-03-24T14:36:41.636Z,66.10
2023-03-24T14:39:35.697Z,67.50
2023-03-24T14:42:48.588Z,64.60
2023-03-24T14:45:41.674Z,63.40
2023-03-24T14:48:39.450Z,62.10
2023-03-24T14:51:14.374Z,61.30
2023-03-24T14:53:41.558Z,63.40
2023-03-24T14:56:14.961Z,60.60
2023-03-24T14:58:44.090Z,60.30
2023-03-24T15:01:12.084Z,59.50
2023-03-24T15:03:58.075Z,63.20
2023-03-24T15:06:25.183Z,58.90
2023-03-24T15:09:01.307Z,62.30
2023-03-24T15:11:37.071Z,60.90
2023-03-24T15:14:15.880Z,63.00
2023-03-24T15:16:43.276Z,65.20
2023-03-24T15:19:21.730Z,65.90
2023-03-24T15:22:12.882Z,69.50
2023-03-24T15:24:42.546Z,64.40
2023-03-24T15:27:26.727Z,63.40
2023-03-24T15:29:57.677Z,66.90
2023-03-24T15:32:27.526Z,64.00
2023-03-24T15:34:57.061Z,64.50
2023-03-24T15:37:31.257Z,67.80
2023-03-24T15:40:09.071Z,65.10
2023-03-24T15:42:43.562Z,65.80
2023-03-24T15:45:22.227Z,67.10
2023-03-24T15:47:53.284Z,65.90
2023-03-24T15:50:41.190Z,66.00
2023-03-24T15:53:14.196Z,67.20
2023-03-24T15:55:44.072Z,69.00
2023-03-24T15:58:28.528Z,69.90
2023-03-24T16:01:00.249Z,72.30
2023-03-24T16:03:27.937Z,71.40
2023-03-24T16:05:56.936Z,68.00
2023-03-24T16:08:39.223Z,68.90
2023-03-24T16:11:11.018Z,67.30
2023-03-24T16:13:43.153Z,69.10
2023-03-24T16:16:16.370Z,63.60
2023-03-24T16:18:48.798Z,68.20
2023-03-24T16:21:27.892Z,67.70
2023-03-24T16:23:56.532Z,65.20
2023-03-24T16:26:24.560Z,66.50
2023-03-24T16:28:53.201Z,60.70
2023-03-24T16:31:26.014Z,64.40
2023-03-24T16:33:57.888Z,62.30
2023-03-24T16:36:29.211Z,62.10
2023-03-24T16:38:58.999Z,63.40
2023-03-24T16:41:25.876Z,64.40
2023-03-24T16:43:53.328Z,65.90
2023-03-24T16:46:26.459Z,64.60
2023-03-24T16:48:54.329Z,68.50
2023-03-24T16:51:21.982Z,67.10
2023-03-24T16:53:49.028Z,64.90
2023-03-24T16:56:18.708Z,66.60
2023-03-24T16:58:49.159Z,66.80
2023-03-24T17:01:27.005Z,67.00
2023-03-24T17:03:59.492Z,68.30
2023-03-24T17:06:29.008Z,68.50
2023-03-24T17:08:55.925Z,69.30
2023-03-24T17:11:34.392Z,67.50
2023-03-24T17:14:08.572Z,68.70
2023-03-24T17:16:37.074Z,69.70
2023-03-24T17:19:07.029Z,66.60
2023-03-24T17:21:41.725Z,68.60
2023-03-24T17:24:10.763Z,67.60
2023-03-24T17:26:38.409Z,65.70
2023-03-24T17:29:07.072Z,67.20
2023-03-24T17:31:34.232Z,66.70
2023-03-24T17:34:08.588Z,64.60
2023-03-24T17:36:49.629Z,67.20
2023-03-24T17:39:18.070Z,69.20
2023-03-24T17:41:44.871Z,71.10
2023-03-24T17:44:11.887Z,76.80
2023-03-24T17:46:38.763Z,86.50
2023-03-24T17:49:06.492Z,92.20
2023-03-24T17:51:33.596Z,94.50
2023-03-24T17:54:00.823Z,96.90
2023-03-24T17:56:28.701Z,98.80
2023-03-24T17:58:58.690Z,99.90
2023-03-24T18:01:29.713Z,99.90
2023-03-24T18:03:57.361Z,99.90
2023-03-24T18:06:24.295Z,99.90
2023-03-24T18:08:51.772Z,99.90
2023-03-24T18:11:18.590Z,99.90
2023-03-24T18:13:45.615Z,99.90
2023-03-24T18:16:21.532Z,99.90
2023-03-24T18:18:50.438Z,99.90
2023-03-24T18:21:18.097Z,99.90
2023-03-24T18:23:46.658Z,99.90
2023-03-24T18:26:14.555Z,99.90
2023-03-24T18:28:42.835Z,99.90
2023-03-24T18:31:12.746Z,99.90
2023-03-24T18:33:42.683Z,99.90
2023-03-24T18:36:10.538Z,99.90
2023-03-24T18:38:37.392Z,99.90
2023-03-24T18:41:06.812Z,99.90
2023-03-24T18:43:37.560Z,99.90
2023-03-24T18:46:05.737Z,99.90
2023-03-24T18:48:32.728Z,99.90
2023-03-24T18:50:59.597Z,99.90
2023-03-24T18:53:27.908Z,99.10
2023-03-24T18:55:54.929Z,98.80
2023-03-24T18:58:22.199Z,98.50
2023-03-24T19:00:51.669Z,98.40
2023-03-24T19:03:20.278Z,98.30
2023-03-24T19:05:47.300Z,98.80
2023-03-24T19:08:14.889Z,98.90
2023-03-24T19:10:45.671Z,99.10
2023-03-24T19:13:14.686Z,98.90
2023-03-24T19:15:45.720Z,99.10
2023-03-24T19:18:12.788Z,98.50
2023-03-24T19:20:40.818Z,98.50
2023-03-24T19:23:08.090Z,98.50
2023-03-24T19:25:35.319Z,98.60
2023-03-24T19:28:02.290Z,98.30
2023-03-24T19:30:29.497Z,98.40
2023-03-24T19:32:57.089Z,98.40
2023-03-24T19:35:24.116Z,99.10
2023-03-24T19:37:51.008Z,98.70
2023-03-24T19:40:17.898Z,98.00
2023-03-24T19:42:45.218Z,98.10
2023-03-24T19:45:17.220Z,98.00
2023-03-24T19:47:46.064Z,98.30
2023-03-24T19:50:15.551Z,98.70
2023-03-24T19:52:48.729Z,98.70
2023-03-24T19:55:15.667Z,98.30
2023-03-24T19:57:42.651Z,98.10
2023-03-24T20:00:14.500Z,96.80
2023-03-24T20:02:41.731Z,95.70
2023-03-24T20:05:09.630Z,95.40
2023-03-24T20:07:36.923Z,94.40
2023-03-24T20:10:03.992Z,94.30
2023-03-24T20:12:30.863Z,93.60
2023-03-24T20:14:57.829Z,93.70
2023-03-24T20:17:26.500Z,94.60
2023-03-24T20:19:54.287Z,95.70
2023-03-24T20:22:22.128Z,96.40
2023-03-24T20:24:49.387Z,97.60
2023-03-24T20:27:16.631Z,99.20
2023-03-24T20:29:45.787Z,98.80
2023-03-24T20:32:13.374Z,99.10
2023-03-24T20:34:40.796Z,99.80
2023-03-24T20:37:08.220Z,99.90
2023-03-24T20:39:35.143Z,99.90
2023-03-24T20:42:02.124Z,99.90
2023-03-24T20:44:29.011Z,99.90
2023-03-24T20:46:57.269Z,99.90
2023-03-24T20:49:25.753Z,99.90
2023-03-24T20:51:53.873Z,99.90
2023-03-24T20:54:21.435Z,99.90
2023-03-24T20:56:52.562Z,99.90
2023-03-24T20:59:19.826Z,99.90
2023-03-24T21:01:48.575Z,99.90
2023-03-24T21:04:17.113Z,99.90
2023-03-24T21:06:44.242Z,99.90
2023-03-24T21:09:12.029Z,99.90
2023-03-24T21:11:38.937Z,99.90
2023-03-24T21:14:05.746Z,99.90
2023-03-24T21:16:34.055Z,99.90
2023-03-24T21:19:04.186Z,99.90
2023-03-24T21:21:32.266Z,99.90
2023-03-24T21:24:00.372Z,99.90
2023-03-24T21:26:27.653Z,99.90
2023-03-24T21:28:54.552Z,99.90
2023-03-24T21:31:25.555Z,99.90
2023-03-24T21:33:53.345Z,99.90
2023-03-24T21:36:21.513Z,99.90
2023-03-24T21:38:51.670Z,99.90
2023-03-24T21:41:19.447Z,99.90
2023-03-24T21:43:46.978Z,99.90
2023-03-24T21:46:21.533Z,99.90
2023-03-24T21:48:53.119Z,99.90
2023-03-24T21:51:24.085Z,99.90
2023-03-24T21:53:55.596Z,99.90
2023-03-24T21:56:23.419Z,99.90
2023-03-24T21:58:52.305Z,99.90
2023-03-24T22:01:19.311Z,99.90
2023-03-24T22:03:46.597Z,99.90
2023-03-24T22:06:13.747Z,99.90
2023-03-24T22:08:43.932Z,99.90
2023-03-24T22:11:11.652Z,99.90
2023-03-24T22:13:39.353Z,99.90
2023-03-24T22:16:07.244Z,99.90
2023-03-24T22:18:35.411Z,99.90
2023-03-24T22:21:06.977Z,99.90
2023-03-24T22:23:39.419Z,99.90
2023-03-24T22:26:12.376Z,99.90
2023-03-24T22:28:40.239Z,99.90
2023-03-24T22:31:09.382Z,99.90
2023-03-24T22:33:37.297Z,99.90
2023-03-24T22:36:05.215Z,99.90
2023-03-24T22:38:32.527Z,99.90
2023-03-24T22:41:01.683Z,99.90
2023-03-24T22:43:29.610Z,99.90
2023-03-24T22:45:56.883Z,99.90
2023-03-24T22:48:24.128Z,99.90
2023-03-24T22:50:51.464Z,99.90
2023-03-24T22:53:18.495Z,99.90
2023-03-24T22:55:45.600Z,99.90
2023-03-24T22:58:13.372Z,99.90
2023-03-24T23:00:45.423Z,99.90
2023-03-24T23:03:12.734Z,99.90
2023-03-24T23:05:43.886Z,99.90
2023-03-24T23:08:14.106Z,99.90
2023-03-24T23:10:42.535Z,99.90
2023-03-24T23:13:10.648Z,99.90
2023-03-24T23:15:42.634Z,99.90
2023-03-24T23:18:10.767Z,99.90
2023-03-24T23:20:37.786Z,99.90
2023-03-24T23:23:06.818Z,99.90
2023-03-24T23:25:40.067Z,99.90
2023-03-24T23:28:07.174Z,99.90
2023-03-24T23:30:38.177Z,99.90
2023-03-24T23:33:05.662Z,99.90
2023-03-24T23:35:33.268Z,99.90
2023-03-24T23:38:02.354Z,99.90
2023-03-24T23:40:29.222Z,99.90
2023-03-24T23:42:56.349Z,99.90
2023-03-24T23:45:23.263Z,99.90
2023-03-24T23:47:51.809Z,99.70
2023-03-24T23:50:19.936Z,99.50
2023-03-24T23:52:47.465Z,99.70
2023-03-24T23:55:16.502Z,99.30
2023-03-24T23:57:43.660Z,99.90
